sensor_id;sensor_type;location;lat;lon;timestamp;pressure;altitude;pressure_sealevel;temperature;humidity
56330;BME280;42236;48.058;10.632;2023-02-03T00:00:46;95850.66;;;3.26;91.76
56330;BME280;42236;48.058;10.632;2023-02-03T00:03:31;95845.34;;;3.26;91.62
56330;BME280;42236;48.058;10.632;2023-02-03T00:06:17;95842.13;;;3.24;91.91
56330;BME280;42236;48.058;10.632;2023-02-03T00:09:03;95845.06;;;3.22;91.68
56330;BME280;42236;48.058;10.632;2023-02-03T00:11:48;95841.88;;;3.20;91.95
56330;BME280;42236;48.058;10.632;2023-02-03T00:14:34;95849.88;;;3.20;91.75
56330;BME280;42236;48.058;10.632;2023-02-03T00:17:22;95846.66;;;3.18;91.50
56330;BME280;42236;48.058;10.632;2023-02-03T00:20:08;95839.72;;;3.17;91.19
56330;BME280;42236;48.058;10.632;2023-02-03T00:22:54;95837.59;;;3.19;91.67
56330;BME280;42236;48.058;10.632;2023-02-03T00:25:39;95822.66;;;3.18;91.36
56330;BME280;42236;48.058;10.632;2023-02-03T00:28:28;95817.88;;;3.20;91.44
56330;BME280;42236;48.058;10.632;2023-02-03T00:31:18;95826.41;;;3.22;91.72
56330;BME280;42236;48.058;10.632;2023-02-03T00:34:03;95829.59;;;3.19;91.25
56330;BME280;42236;48.058;10.632;2023-02-03T00:36:49;95820.53;;;3.20;91.19
56330;BME280;42236;48.058;10.632;2023-02-03T00:39:35;95816.00;;;3.20;91.43
56330;BME280;42236;48.058;10.632;2023-02-03T00:42:21;95823.75;;;3.22;91.23
56330;BME280;42236;48.058;10.632;2023-02-03T00:45:07;95826.94;;;3.24;91.12
56330;BME280;42236;48.058;10.632;2023-02-03T00:47:53;95826.94;;;3.24;91.05
56330;BME280;42236;48.058;10.632;2023-02-03T00:50:39;95819.19;;;3.23;91.01
56330;BME280;42236;48.058;10.632;2023-02-03T00:53:25;95826.41;;;3.22;91.27
56330;BME280;42236;48.058;10.632;2023-02-03T00:56:10;95825.88;;;3.20;91.39
56330;BME280;42236;48.058;10.632;2023-02-03T00:58:57;95829.59;;;3.19;91.23
56330;BME280;42236;48.058;10.632;2023-02-03T01:01:42;95832.78;;;3.21;90.94
56330;BME280;42236;48.058;10.632;2023-02-03T01:04:28;95829.06;;;3.22;90.88
56330;BME280;42236;48.058;10.632;2023-02-03T01:07:14;95829.06;;;3.22;90.83
56330;BME280;42236;48.058;10.632;2023-02-03T01:10:00;95833.06;;;3.25;90.75
56330;BME280;42236;48.058;10.632;2023-02-03T01:12:45;95834.94;;;3.24;90.71
56330;BME280;42236;48.058;10.632;2023-02-03T01:15:31;95834.13;;;3.24;90.15
56330;BME280;42236;48.058;10.632;2023-02-03T01:18:16;95838.13;;;3.26;90.53
56330;BME280;42236;48.058;10.632;2023-02-03T01:21:11;95837.63;;;3.24;89.94
56330;BME280;42236;48.058;10.632;2023-02-03T01:23:58;95844.53;;;3.25;89.59
56330;BME280;42236;48.058;10.632;2023-02-03T01:26:44;95832.78;;;3.26;89.73
56330;BME280;42236;48.058;10.632;2023-02-03T01:29:30;95841.88;;;3.30;90.26
56330;BME280;42236;48.058;10.632;2023-02-03T01:32:15;95835.50;;;3.31;89.90
56330;BME280;42236;48.058;10.632;2023-02-03T01:35:01;95835.50;;;3.31;89.96
56330;BME280;42236;48.058;10.632;2023-02-03T01:37:46;95839.75;;;3.32;89.50
56330;BME280;42236;48.058;10.632;2023-02-03T01:40:32;95850.41;;;3.32;89.23
56330;BME280;42236;48.058;10.632;2023-02-03T01:43:34;95845.63;;;3.29;89.24
56330;BME280;42236;48.058;10.632;2023-02-03T01:49:12;95846.97;;;3.32;89.41
56330;BME280;42236;48.058;10.632;2023-02-03T01:52:01;95841.34;;;3.33;89.63
56330;BME280;42236;48.058;10.632;2023-02-03T01:54:49;95848.53;;;3.33;89.34
56330;BME280;42236;48.058;10.632;2023-02-03T01:58:00;95845.63;;;3.34;89.62
56330;BME280;42236;48.058;10.632;2023-02-03T02:00:44;95832.81;;;3.31;89.62
56330;BME280;42236;48.058;10.632;2023-02-03T02:03:37;95824.28;;;3.29;89.56
56330;BME280;42236;48.058;10.632;2023-02-03T02:06:24;95813.34;;;3.31;89.70
56330;BME280;42236;48.058;10.632;2023-02-03T02:09:10;95821.09;;;3.27;89.29
56330;BME280;42236;48.058;10.632;2023-02-03T02:11:56;95808.78;;;3.26;89.40
56330;BME280;42236;48.058;10.632;2023-02-03T02:14:42;95813.63;;;3.29;89.67
56330;BME280;42236;48.058;10.632;2023-02-03T02:17:45;95810.13;;;3.24;88.93
56330;BME280;42236;48.058;10.632;2023-02-03T02:20:53;95800.78;;;3.26;89.41
56330;BME280;42236;48.058;10.632;2023-02-03T02:26:59;95812.53;;;3.25;89.51
56330;BME280;42236;48.058;10.632;2023-02-03T02:35:57;95822.66;;;3.18;89.08
56330;BME280;42236;48.058;10.632;2023-02-03T02:39:09;95800.53;;;3.23;89.06
56330;BME280;42236;48.058;10.632;2023-02-03T02:42:14;95818.13;;;3.18;88.36
56330;BME280;42236;48.058;10.632;2023-02-03T02:45:11;95822.41;;;3.19;88.76
56330;BME280;42236;48.058;10.632;2023-02-03T02:48:13;95813.06;;;3.22;88.67
56330;BME280;42236;48.058;10.632;2023-02-03T02:51:01;95806.41;;;3.25;88.78
56330;BME280;42236;48.058;10.632;2023-02-03T02:53:53;95789.63;;;3.24;88.96
56330;BME280;42236;48.058;10.632;2023-02-03T02:56:42;95780.28;;;3.22;89.15
56330;BME280;42236;48.058;10.632;2023-02-03T02:59:29;95761.06;;;3.19;88.68
56330;BME280;42236;48.058;10.632;2023-02-03T03:02:15;95760.28;;;3.19;88.52
56330;BME280;42236;48.058;10.632;2023-02-03T03:05:04;95772.53;;;3.20;89.00
56330;BME280;42236;48.058;10.632;2023-02-03T03:07:55;95766.13;;;3.16;88.79
56330;BME280;42236;48.058;10.632;2023-02-03T03:10:44;95761.59;;;3.16;89.15
56330;BME280;42236;48.058;10.632;2023-02-03T03:13:33;95777.88;;;3.15;88.46
56330;BME280;42236;48.058;10.632;2023-02-03T03:16:26;95785.56;;;3.11;88.48
56330;BME280;42236;48.058;10.632;2023-02-03T03:19:18;95779.44;;;3.11;88.58
56330;BME280;42236;48.058;10.632;2023-02-03T03:22:09;95778.91;;;3.14;88.90
56330;BME280;42236;48.058;10.632;2023-02-03T03:25:00;95776.53;;;3.12;88.56
56330;BME280;42236;48.058;10.632;2023-02-03T03:27:53;95769.59;;;3.11;88.33
56330;BME280;42236;48.058;10.632;2023-02-03T03:30:40;95764.53;;;3.10;88.24
56330;BME280;42236;48.058;10.632;2023-02-03T03:33:26;95780.78;;;3.13;88.42
56330;BME280;42236;48.058;10.632;2023-02-03T03:36:29;95795.44;;;3.11;88.09
56330;BME280;42236;48.058;10.632;2023-02-03T03:39:23;95788.53;;;3.10;88.30
56330;BME280;42236;48.058;10.632;2023-02-03T03:42:20;95801.31;;;3.08;88.01
56330;BME280;42236;48.058;10.632;2023-02-03T03:45:26;95781.56;;;3.04;87.71
56330;BME280;42236;48.058;10.632;2023-02-03T03:48:28;95763.47;;;3.06;88.18
56330;BME280;42236;48.058;10.632;2023-02-03T03:51:19;95777.31;;;3.03;88.08
56330;BME280;42236;48.058;10.632;2023-02-03T03:54:08;95765.03;;;3.02;88.40
56330;BME280;42236;48.058;10.632;2023-02-03T03:57:01;95770.13;;;3.03;88.42
56330;BME280;42236;48.058;10.632;2023-02-03T03:59:50;95768.78;;;3.06;88.57
56330;BME280;42236;48.058;10.632;2023-02-03T04:02:38;95778.91;;;3.04;88.37
56330;BME280;42236;48.058;10.632;2023-02-03T04:05:24;95797.03;;;3.02;87.78
56330;BME280;42236;48.058;10.632;2023-02-03T04:08:11;95794.34;;;3.02;88.19
56330;BME280;42236;48.058;10.632;2023-02-03T04:10:56;95778.91;;;3.04;88.05
56330;BME280;42236;48.058;10.632;2023-02-03T04:13:42;95773.56;;;3.04;88.15
56330;BME280;42236;48.058;10.632;2023-02-03T04:16:28;95786.66;;;3.00;87.95
56330;BME280;42236;48.058;10.632;2023-02-03T04:19:13;95793.03;;;2.99;87.82
56330;BME280;42236;48.058;10.632;2023-02-03T04:21:59;95806.91;;;3.01;88.01
56330;BME280;42236;48.058;10.632;2023-02-03T04:24:45;95812.75;;;3.03;87.73
56330;BME280;42236;48.058;10.632;2023-02-03T04:27:31;95825.31;;;3.03;87.95
56330;BME280;42236;48.058;10.632;2023-02-03T04:30:17;95833.28;;;3.03;87.83
56330;BME280;42236;48.058;10.632;2023-02-03T04:33:02;95837.00;;;3.02;87.58
56330;BME280;42236;48.058;10.632;2023-02-03T04:35:48;95835.16;;;3.02;87.57
56330;BME280;42236;48.058;10.632;2023-02-03T04:38:34;95827.41;;;3.01;87.57
56330;BME280;42236;48.058;10.632;2023-02-03T04:41:20;95835.69;;;3.04;87.83
56330;BME280;42236;48.058;10.632;2023-02-03T04:44:05;95836.50;;;3.05;87.80
56330;BME280;42236;48.058;10.632;2023-02-03T04:46:51;95838.63;;;3.03;87.86
56330;BME280;42236;48.058;10.632;2023-02-03T04:49:36;95835.41;;;3.01;87.69
56330;BME280;42236;48.058;10.632;2023-02-03T04:52:22;95847.41;;;3.03;88.35
56330;BME280;42236;48.058;10.632;2023-02-03T04:55:08;95833.84;;;3.05;88.31
56330;BME280;42236;48.058;10.632;2023-02-03T04:57:57;95832.75;;;3.01;88.27
56330;BME280;42236;48.058;10.632;2023-02-03T05:00:43;95839.69;;;3.02;88.34
56330;BME280;42236;48.058;10.632;2023-02-03T05:03:29;95824.47;;;2.97;88.40
56330;BME280;42236;48.058;10.632;2023-02-03T05:06:14;95816.22;;;2.98;88.14
56330;BME280;42236;48.058;10.632;2023-02-03T05:09:00;95819.97;;;2.97;87.96
56330;BME280;42236;48.058;10.632;2023-02-03T05:11:46;95837.00;;;2.96;87.84
56330;BME280;42236;48.058;10.632;2023-02-03T05:14:32;95831.66;;;2.96;88.04
56330;BME280;42236;48.058;10.632;2023-02-03T05:17:18;95846.88;;;2.96;88.22
56330;BME280;42236;48.058;10.632;2023-02-03T05:20:03;95860.72;;;2.98;88.18
56330;BME280;42236;48.058;10.632;2023-02-03T05:22:49;95856.19;;;2.98;88.25
56330;BME280;42236;48.058;10.632;2023-02-03T05:25:35;95857.53;;;2.96;87.57
56330;BME280;42236;48.058;10.632;2023-02-03T05:28:20;95854.59;;;2.97;87.97
56330;BME280;42236;48.058;10.632;2023-02-03T05:31:06;95837.00;;;2.96;87.97
56330;BME280;42236;48.058;10.632;2023-02-03T05:33:52;95847.66;;;2.96;88.12
56330;BME280;42236;48.058;10.632;2023-02-03T05:36:37;95839.13;;;2.94;87.88
56330;BME280;42236;48.058;10.632;2023-02-03T05:39:23;95829.78;;;2.92;88.02
56330;BME280;42236;48.058;10.632;2023-02-03T05:42:09;95823.13;;;2.94;87.99
56330;BME280;42236;48.058;10.632;2023-02-03T05:44:54;95820.47;;;2.94;88.07
56330;BME280;42236;48.058;10.632;2023-02-03T05:47:40;95808.22;;;2.98;88.14
56330;BME280;42236;48.058;10.632;2023-02-03T05:50:26;95814.63;;;2.97;88.14
56330;BME280;42236;48.058;10.632;2023-02-03T05:53:14;95822.34;;;2.94;87.81
56330;BME280;42236;48.058;10.632;2023-02-03T05:56:00;95827.13;;;2.97;87.53
56330;BME280;42236;48.058;10.632;2023-02-03T05:58:45;95819.69;;;2.99;88.03
56330;BME280;42236;48.058;10.632;2023-02-03T06:01:32;95809.81;;;2.99;87.61
56330;BME280;42236;48.058;10.632;2023-02-03T06:04:18;95803.44;;;2.95;87.46
56330;BME280;42236;48.058;10.632;2023-02-03T06:07:04;95811.41;;;2.95;87.40
56330;BME280;42236;48.058;10.632;2023-02-03T06:09:49;95805.53;;;2.88;87.14
56330;BME280;42236;48.058;10.632;2023-02-03T06:12:36;95814.63;;;2.92;86.94
56330;BME280;42236;48.058;10.632;2023-02-03T06:15:22;95808.22;;;2.98;87.54
56330;BME280;42236;48.058;10.632;2023-02-03T06:18:08;95816.75;;;3.01;87.06
56330;BME280;42236;48.058;10.632;2023-02-03T06:20:54;95822.88;;;3.01;87.30
56330;BME280;42236;48.058;10.632;2023-02-03T06:23:39;95831.44;;;3.03;87.34
56330;BME280;42236;48.058;10.632;2023-02-03T06:26:25;95821.56;;;3.04;86.79
56330;BME280;42236;48.058;10.632;2023-02-03T06:29:11;95794.91;;;3.04;87.14
56330;BME280;42236;48.058;10.632;2023-02-03T06:31:56;95803.44;;;3.06;87.08
56330;BME280;42236;48.058;10.632;2023-02-03T06:34:42;95790.66;;;3.03;86.31
56330;BME280;42236;48.058;10.632;2023-02-03T06:37:27;95811.69;;;3.09;86.63
56330;BME280;42236;48.058;10.632;2023-02-03T06:40:13;95824.22;;;3.09;86.36
56330;BME280;42236;48.058;10.632;2023-02-03T06:42:59;95809.03;;;3.09;86.25
56330;BME280;42236;48.058;10.632;2023-02-03T06:45:45;95798.38;;;3.09;86.21
56330;BME280;42236;48.058;10.632;2023-02-03T06:48:33;95797.06;;;3.12;86.43
56330;BME280;42236;48.058;10.632;2023-02-03T06:51:19;95793.84;;;3.10;86.09
56330;BME280;42236;48.058;10.632;2023-02-03T06:54:05;95807.72;;;3.12;85.97
56330;BME280;42236;48.058;10.632;2023-02-03T06:56:52;95806.41;;;3.14;85.46
56330;BME280;42236;48.058;10.632;2023-02-03T06:59:37;95819.44;;;3.16;85.13
56330;BME280;42236;48.058;10.632;2023-02-03T07:02:23;95828.78;;;3.18;85.31
56330;BME280;42236;48.058;10.632;2023-02-03T07:05:09;95838.66;;;3.18;85.08
56330;BME280;42236;48.058;10.632;2023-02-03T07:07:55;95842.41;;;3.22;85.29
56330;BME280;42236;48.058;10.632;2023-02-03T07:10:40;95828.00;;;3.23;85.16
56330;BME280;42236;48.058;10.632;2023-02-03T07:13:26;95825.31;;;3.23;85.24
56330;BME280;42236;48.058;10.632;2023-02-03T07:16:12;95817.88;;;3.25;84.98
56330;BME280;42236;48.058;10.632;2023-02-03T07:18:58;95833.34;;;3.28;84.38
56330;BME280;42236;48.058;10.632;2023-02-03T07:21:44;95841.88;;;3.35;84.96
56330;BME280;42236;48.058;10.632;2023-02-03T07:24:30;95834.41;;;3.37;84.30
56330;BME280;42236;48.058;10.632;2023-02-03T07:27:15;95825.38;;;3.38;84.25
56330;BME280;42236;48.058;10.632;2023-02-03T07:30:01;95817.88;;;3.40;83.98
56330;BME280;42236;48.058;10.632;2023-02-03T07:32:48;95814.16;;;3.41;84.13
56330;BME280;42236;48.058;10.632;2023-02-03T07:35:34;95810.97;;;3.45;83.73
56330;BME280;42236;48.058;10.632;2023-02-03T07:38:20;95802.16;;;3.49;83.99
56330;BME280;42236;48.058;10.632;2023-02-03T07:41:06;95787.50;;;3.52;83.88
56330;BME280;42236;48.058;10.632;2023-02-03T07:43:51;95781.59;;;3.55;83.16
56330;BME280;42236;48.058;10.632;2023-02-03T07:46:37;95776.81;;;3.57;83.31
56330;BME280;42236;48.058;10.632;2023-02-03T07:49:29;95780.56;;;3.56;82.03
56330;BME280;42236;48.058;10.632;2023-02-03T07:52:17;95768.81;;;3.62;82.54
56330;BME280;42236;48.058;10.632;2023-02-03T07:55:03;95763.47;;;3.72;82.51
56330;BME280;42236;48.058;10.632;2023-02-03T07:57:48;95757.59;;;3.75;82.29
56330;BME280;42236;48.058;10.632;2023-02-03T08:00:34;95761.84;;;3.81;82.25
56330;BME280;42236;48.058;10.632;2023-02-03T08:03:20;95788.00;;;3.90;82.40
56330;BME280;42236;48.058;10.632;2023-02-03T08:06:06;95793.34;;;3.95;82.09
56330;BME280;42236;48.058;10.632;2023-02-03T08:08:52;95794.41;;;3.99;81.80
56330;BME280;42236;48.058;10.632;2023-02-03T08:11:38;95788.00;;;3.95;81.46
56330;BME280;42236;48.058;10.632;2023-02-03T08:14:24;95787.19;;;3.99;81.92
56330;BME280;42236;48.058;10.632;2023-02-03T08:17:09;95777.03;;;4.01;81.60
56330;BME280;42236;48.058;10.632;2023-02-03T08:19:55;95779.44;;;4.03;82.01
56330;BME280;42236;48.058;10.632;2023-02-03T08:22:41;95784.22;;;4.01;80.70
56330;BME280;42236;48.058;10.632;2023-02-03T08:25:27;95771.41;;;4.03;81.65
56330;BME280;42236;48.058;10.632;2023-02-03T08:28:12;95799.19;;;4.07;81.54
56330;BME280;42236;48.058;10.632;2023-02-03T08:30:58;95803.19;;;4.04;81.71
56330;BME280;42236;48.058;10.632;2023-02-03T08:33:44;95817.88;;;4.07;81.76
56330;BME280;42236;48.058;10.632;2023-02-03T08:36:29;95816.81;;;4.03;81.79
56330;BME280;42236;48.058;10.632;2023-02-03T08:39:15;95828.28;;;4.03;81.75
56330;BME280;42236;48.058;10.632;2023-02-03T08:42:01;95816.25;;;4.01;81.39
56330;BME280;42236;48.058;10.632;2023-02-03T08:44:48;95832.28;;;4.01;80.97
56330;BME280;42236;48.058;10.632;2023-02-03T08:47:34;95836.03;;;4.05;81.54
56330;BME280;42236;48.058;10.632;2023-02-03T08:50:21;95843.50;;;4.08;81.77
56330;BME280;42236;48.058;10.632;2023-02-03T08:53:07;95839.22;;;4.12;81.74
56330;BME280;42236;48.058;10.632;2023-02-03T08:55:53;95832.84;;;4.13;80.98
56330;BME280;42236;48.058;10.632;2023-02-03T08:58:39;95834.97;;;4.11;80.33
56330;BME280;42236;48.058;10.632;2023-02-03T09:01:25;95832.28;;;4.16;80.35
56330;BME280;42236;48.058;10.632;2023-02-03T09:04:16;95840.84;;;4.18;80.03
56330;BME280;42236;48.058;10.632;2023-02-03T09:07:08;95829.88;;;4.15;78.80
56330;BME280;42236;48.058;10.632;2023-02-03T09:09:54;95825.31;;;4.25;79.84
56330;BME280;42236;48.058;10.632;2023-02-03T09:12:40;95807.16;;;4.22;78.60
56330;BME280;42236;48.058;10.632;2023-02-03T09:15:25;95820.50;;;4.22;78.96
56330;BME280;42236;48.058;10.632;2023-02-03T09:18:11;95813.56;;;4.21;78.30
56330;BME280;42236;48.058;10.632;2023-02-03T09:21:05;95811.97;;;4.31;78.80
56330;BME280;42236;48.058;10.632;2023-02-03T09:23:51;95810.88;;;4.32;78.52
56330;BME280;42236;48.058;10.632;2023-02-03T09:26:37;95824.22;;;4.37;79.07
56330;BME280;42236;48.058;10.632;2023-02-03T09:29:22;95816.19;;;4.37;78.92
56330;BME280;42236;48.058;10.632;2023-02-03T09:32:08;95817.00;;;4.42;79.01
56330;BME280;42236;48.058;10.632;2023-02-03T09:34:54;95824.50;;;4.40;79.26
56330;BME280;42236;48.058;10.632;2023-02-03T09:37:40;95811.38;;;4.44;79.06
56330;BME280;42236;48.058;10.632;2023-02-03T09:40:31;95807.59;;;4.55;78.88
56330;BME280;42236;48.058;10.632;2023-02-03T09:46:25;95806.75;;;4.65;78.31
56330;BME280;42236;48.058;10.632;2023-02-03T09:52:24;95781.13;;;4.59;76.79
56330;BME280;42236;48.058;10.632;2023-02-03T09:58:13;95782.94;;;4.74;77.75
56330;BME280;42236;48.058;10.632;2023-02-03T10:01:01;95759.94;;;4.73;76.74
56330;BME280;42236;48.058;10.632;2023-02-03T10:04:00;95792.59;;;4.69;76.18
56330;BME280;42236;48.058;10.632;2023-02-03T10:06:50;95796.56;;;4.77;76.64
56330;BME280;42236;48.058;10.632;2023-02-03T10:12:51;95804.28;;;4.84;75.78
56330;BME280;42236;48.058;10.632;2023-02-03T10:18:44;95777.53;;;4.89;74.62
56330;BME280;42236;48.058;10.632;2023-02-03T10:21:38;95799.94;;;4.98;75.05
56330;BME280;42236;48.058;10.632;2023-02-03T10:24:47;95788.72;;;4.96;74.63
56330;BME280;42236;48.058;10.632;2023-02-03T10:27:35;95783.06;;;4.98;74.85
56330;BME280;42236;48.058;10.632;2023-02-03T10:30:25;95778.03;;;4.91;73.81
56330;BME280;42236;48.058;10.632;2023-02-03T10:33:14;95781.25;;;4.93;73.51
56330;BME280;42236;48.058;10.632;2023-02-03T10:39:30;95778.78;;;5.02;72.38
56330;BME280;42236;48.058;10.632;2023-02-03T10:42:17;95778.41;;;5.19;73.41
56330;BME280;42236;48.058;10.632;2023-02-03T10:45:04;95790.38;;;5.26;73.33
56330;BME280;42236;48.058;10.632;2023-02-03T10:47:52;95771.94;;;5.25;72.23
56330;BME280;42236;48.058;10.632;2023-02-03T10:50:44;95776.19;;;5.31;71.61
56330;BME280;42236;48.058;10.632;2023-02-03T10:53:33;95767.56;;;5.39;73.00
56330;BME280;42236;48.058;10.632;2023-02-03T10:56:30;95778.19;;;5.49;72.57
56330;BME280;42236;48.058;10.632;2023-02-03T10:59:28;95777.16;;;5.45;69.99
56330;BME280;42236;48.058;10.632;2023-02-03T11:02:23;95783.28;;;5.46;70.35
56330;BME280;42236;48.058;10.632;2023-02-03T11:08:01;95779.25;;;5.48;71.29
56330;BME280;42236;48.058;10.632;2023-02-03T11:10:47;95778.28;;;5.39;70.79
56330;BME280;42236;48.058;10.632;2023-02-03T11:13:33;95778.19;;;5.49;70.89
56330;BME280;42236;48.058;10.632;2023-02-03T11:16:19;95795.22;;;5.64;71.96
56330;BME280;42236;48.058;10.632;2023-02-03T11:19:19;95790.34;;;5.71;70.48
56330;BME280;42236;48.058;10.632;2023-02-03T11:22:05;95781.13;;;5.82;71.87
56330;BME280;42236;48.058;10.632;2023-02-03T11:24:51;95756.47;;;5.85;70.83
56330;BME280;42236;48.058;10.632;2023-02-03T11:27:37;95778.91;;;5.94;70.69
56330;BME280;42236;48.058;10.632;2023-02-03T11:30:25;95767.13;;;5.90;70.82
56330;BME280;42236;48.058;10.632;2023-02-03T11:33:19;95770.88;;;5.89;70.27
56330;BME280;42236;48.058;10.632;2023-02-03T11:36:09;95755.38;;;5.86;70.85
56330;BME280;42236;48.058;10.632;2023-02-03T11:39:31;95774.19;;;5.81;68.53
56330;BME280;42236;48.058;10.632;2023-02-03T11:42:22;95775.75;;;5.82;68.89
56330;BME280;42236;48.058;10.632;2023-02-03T11:45:17;95783.78;;;5.87;69.47
56330;BME280;42236;48.058;10.632;2023-02-03T11:48:20;95741.16;;;5.91;70.00
56330;BME280;42236;48.058;10.632;2023-02-03T11:54:29;95718.22;;;5.80;68.78
56330;BME280;42236;48.058;10.632;2023-02-03T12:07:42;95724.88;;;5.87;68.71
56330;BME280;42236;48.058;10.632;2023-02-03T12:10:34;95725.13;;;5.86;70.51
56330;BME280;42236;48.058;10.632;2023-02-03T12:27:02;95688.28;;;6.02;71.21
56330;BME280;42236;48.058;10.632;2023-02-03T12:30:02;95692.06;;;6.01;69.76
56330;BME280;42236;48.058;10.632;2023-02-03T12:32:56;95682.66;;;6.03;70.75
56330;BME280;42236;48.058;10.632;2023-02-03T12:36:05;95692.84;;;6.01;69.93
56330;BME280;42236;48.058;10.632;2023-02-03T12:38:56;95683.97;;;6.06;70.32
56330;BME280;42236;48.058;10.632;2023-02-03T12:41:54;95682.50;;;5.94;70.36
56330;BME280;42236;48.058;10.632;2023-02-03T12:45:19;95690.53;;;5.89;69.20
56330;BME280;42236;48.058;10.632;2023-02-03T12:48:12;95667.75;;;5.92;70.70
56330;BME280;42236;48.058;10.632;2023-02-03T12:51:03;95673.94;;;5.92;70.50
56330;BME280;42236;48.058;10.632;2023-02-03T12:53:59;95681.13;;;5.97;70.19
56330;BME280;42236;48.058;10.632;2023-02-03T12:56:49;95688.25;;;6.07;71.09
56330;BME280;42236;48.058;10.632;2023-02-03T12:59:39;95685.66;;;6.20;70.98
56330;BME280;42236;48.058;10.632;2023-02-03T13:02:28;95660.69;;;6.25;70.85
56330;BME280;42236;48.058;10.632;2023-02-03T13:05:22;95668.22;;;6.23;70.38
56330;BME280;42236;48.058;10.632;2023-02-03T13:14:33;95620.91;;;6.13;69.11
56330;BME280;42236;48.058;10.632;2023-02-03T13:17:32;95600.50;;;6.17;69.16
56330;BME280;42236;48.058;10.632;2023-02-03T13:20:25;95591.91;;;6.20;70.18
56330;BME280;42236;48.058;10.632;2023-02-03T13:23:13;95584.00;;;6.10;69.14
56330;BME280;42236;48.058;10.632;2023-02-03T13:41:34;95576.81;;;5.82;70.75
56330;BME280;42236;48.058;10.632;2023-02-03T13:44:27;95553.97;;;5.89;71.14
56330;BME280;42236;48.058;10.632;2023-02-03T13:47:17;95550.84;;;5.82;71.11
56330;BME280;42236;48.058;10.632;2023-02-03T13:50:07;95548.81;;;5.74;69.77
56330;BME280;42236;48.058;10.632;2023-02-03T13:53:27;95559.25;;;5.75;70.11
56330;BME280;42236;48.058;10.632;2023-02-03T13:56:22;95589.31;;;5.67;69.89
56330;BME280;42236;48.058;10.632;2023-02-03T14:05:37;95571.41;;;5.68;70.68
56330;BME280;42236;48.058;10.632;2023-02-03T14:17:29;95546.59;;;5.57;70.60
56330;BME280;42236;48.058;10.632;2023-02-03T14:23:21;95526.69;;;5.44;71.34
56330;BME280;42236;48.058;10.632;2023-02-03T14:26:38;95529.13;;;5.41;71.42
56330;BME280;42236;48.058;10.632;2023-02-03T14:29:32;95521.16;;;5.35;71.36
56330;BME280;42236;48.058;10.632;2023-02-03T14:32:19;95521.94;;;5.36;71.55
56330;BME280;42236;48.058;10.632;2023-02-03T14:35:15;95526.81;;;5.34;72.15
56330;BME280;42236;48.058;10.632;2023-02-03T14:38:04;95538.00;;;5.36;71.60
56330;BME280;42236;48.058;10.632;2023-02-03T14:41:03;95510.78;;;5.29;71.52
56330;BME280;42236;48.058;10.632;2023-02-03T14:50:55;95511.16;;;5.22;72.68
56330;BME280;42236;48.058;10.632;2023-02-03T14:53:34;95524.81;;;5.21;72.25
56330;BME280;42236;48.058;10.632;2023-02-03T14:59:13;95504.44;;;5.25;72.46
56330;BME280;42236;48.058;10.632;2023-02-03T15:02:07;95537.09;;;5.22;72.57
56330;BME280;42236;48.058;10.632;2023-02-03T15:07:58;95535.84;;;5.14;72.96
56330;BME280;42236;48.058;10.632;2023-02-03T15:10:46;95535.03;;;5.13;72.61
56330;BME280;42236;48.058;10.632;2023-02-03T15:13:31;95535.84;;;5.14;72.73
56330;BME280;42236;48.058;10.632;2023-02-03T15:16:19;95528.13;;;5.12;72.89
56330;BME280;42236;48.058;10.632;2023-02-03T15:19:18;95535.88;;;5.09;72.97
56330;BME280;42236;48.058;10.632;2023-02-03T15:22:28;95523.63;;;5.08;73.06
56330;BME280;42236;48.058;10.632;2023-02-03T15:25:18;95516.38;;;5.08;73.59
56330;BME280;42236;48.058;10.632;2023-02-03T15:28:16;95510.50;;;5.06;73.51
56330;BME280;42236;48.058;10.632;2023-02-03T15:33:54;95530.38;;;5.00;73.64
56330;BME280;42236;48.058;10.632;2023-02-03T15:36:50;95530.06;;;5.02;73.65
56330;BME280;42236;48.058;10.632;2023-02-03T15:39:41;95527.72;;;4.95;74.11
56330;BME280;42236;48.058;10.632;2023-02-03T15:42:46;95526.94;;;4.95;74.33
56330;BME280;42236;48.058;10.632;2023-02-03T15:45:43;95536.84;;;4.94;74.43
56330;BME280;42236;48.058;10.632;2023-02-03T15:48:50;95547.81;;;4.92;74.69
56330;BME280;42236;48.058;10.632;2023-02-03T15:51:39;95544.88;;;4.94;74.64
56330;BME280;42236;48.058;10.632;2023-02-03T15:54:35;95564.19;;;4.86;74.65
56330;BME280;42236;48.058;10.632;2023-02-03T15:57:28;95559.34;;;4.88;74.66
56330;BME280;42236;48.058;10.632;2023-02-03T16:00:29;95542.50;;;4.87;74.39
56330;BME280;42236;48.058;10.632;2023-02-03T16:03:20;95552.41;;;4.87;74.59
56330;BME280;42236;48.058;10.632;2023-02-03T16:06:27;95538.00;;;4.83;74.96
56330;BME280;42236;48.058;10.632;2023-02-03T16:09:28;95528.41;;;4.82;75.03
56330;BME280;42236;48.058;10.632;2023-02-03T16:12:25;95528.13;;;4.83;75.01
56330;BME280;42236;48.058;10.632;2023-02-03T16:15:23;95515.09;;;4.77;74.33
56330;BME280;42236;48.058;10.632;2023-02-03T16:18:15;95527.09;;;4.79;74.58
56330;BME280;42236;48.058;10.632;2023-02-03T16:21:03;95510.75;;;4.81;75.15
56330;BME280;42236;48.058;10.632;2023-02-03T16:23:49;95507.06;;;4.77;75.15
56330;BME280;42236;48.058;10.632;2023-02-03T16:26:34;95514.00;;;4.78;75.05
56330;BME280;42236;48.058;10.632;2023-02-03T16:29:27;95515.59;;;4.79;75.05
56330;BME280;42236;48.058;10.632;2023-02-03T16:32:32;95518.28;;;4.79;75.48
56330;BME280;42236;48.058;10.632;2023-02-03T16:35:36;95535.94;;;4.75;75.17
56330;BME280;42236;48.058;10.632;2023-02-03T16:38:48;95528.72;;;4.75;75.54
56330;BME280;42236;48.058;10.632;2023-02-03T16:41:52;95528.97;;;4.79;75.57
56330;BME280;42236;48.058;10.632;2023-02-03T16:44:57;95527.94;;;4.75;75.94
56330;BME280;42236;48.058;10.632;2023-02-03T16:48:02;95527.38;;;4.78;76.10
56330;BME280;42236;48.058;10.632;2023-02-03T16:51:14;95536.47;;;4.77;76.10
56330;BME280;42236;48.058;10.632;2023-02-03T16:54:02;95555.97;;;4.77;76.01
56330;BME280;42236;48.058;10.632;2023-02-03T16:56:48;95557.28;;;4.80;75.78